Terminal Aerodrome Forecast
Issued by NWS Greer, SC

Current Version | Previous Version | Text Only | Print | Product List | Glossary On
Versions: 1 2 3 4 5 6 7 8 9 10 11 12 13 14 15 16 17 18 19 20 21 22 23 24 25 26 27 28 29 30
000
FTUS42 KGSP 240219 AAB
TAFAVL
TAF AMD
KAVL 240219Z 2402/2424 18006KT 6SM BR OVC009 WS020/20050KT
     FM240800 19010KT P6SM OVC003
     FM241200 19010KT P6SM BKN002
     FM241600 20012KT P6SM SCT070=

USA.gov is the U.S. government's official web portal to all federal, state and local government web resources and services.